Time;durP1;ratioP1;P1;durP2;ratioP2;P2;SDS_P1;SDS_P2;PMS_P1;PMS_P2;Temp;Humidity;BMP_temperature;BMP_pressure;BME280_temperature;BME280_humidity;BME280_pressure;Samples;Min_cycle;Max_cycle;Signal;HPM_P1;HPM_P2
2021/06/22 00:01:22;;;;;;;10.10;7.47;;;;;;;23.90;59.31;99695.98;125693;1100;103271;-85
2021/06/22 00:03:49;;;;;;;8.90;6.77;;;;;;;23.88;59.39;99689.78;125576;1096;114401;-85
2021/06/22 00:06:17;;;;;;;12.60;7.30;;;;;;;23.82;59.37;99683.06;125626;1096;102922;-85
2021/06/22 00:08:44;;;;;;;16.87;7.50;;;;;;;23.78;59.96;99686.20;125671;1095;103239;-85
2021/06/22 00:11:11;;;;;;;8.43;7.35;;;;;;;23.73;60.21;99688.52;125669;1095;115164;-85
2021/06/22 00:13:39;;;;;;;9.18;7.53;;;;;;;23.71;59.95;99694.94;125860;1096;103068;-85
2021/06/22 00:16:06;;;;;;;11.17;8.27;;;;;;;23.73;60.21;99692.08;125719;1096;114795;-85
2021/06/22 00:18:34;;;;;;;11.08;8.18;;;;;;;23.71;60.02;99697.66;125719;1096;103148;-84
2021/06/22 00:21:01;;;;;;;10.60;7.93;;;;;;;23.73;60.63;99693.95;125744;1096;103182;-85
2021/06/22 00:23:44;;;;;;;10.30;8.23;;;;;;;23.73;60.16;99700.23;125728;1095;114987;-84
2021/06/22 00:26:12;;;;;;;13.50;8.77;;;;;;;23.75;60.22;99709.13;127593;1094;102025;-85
2021/06/22 00:28:53;;;;;;;9.63;8.48;;;;;;;23.82;59.65;99709.41;127104;1096;115049;-84
2021/06/22 00:31:21;;;;;;;14.20;9.93;;;;;;;23.84;59.59;99708.23;127168;1094;102341;-84
2021/06/22 00:33:49;;;;;;;12.98;8.03;;;;;;;23.92;59.59;99718.44;127091;1096;115247;-84
2021/06/22 00:36:16;;;;;;;12.83;8.03;;;;;;;23.93;59.42;99716.59;126108;1096;103082;-83
2021/06/22 00:38:43;;;;;;;13.07;9.17;;;;;;;23.90;59.49;99716.86;125673;1096;102914;-83
2021/06/22 00:41:11;;;;;;;18.33;9.30;;;;;;;23.87;59.61;99718.84;125595;1096;114282;-84
2021/06/22 00:43:39;;;;;;;11.10;7.73;;;;;;;23.85;59.90;99711.83;125752;1096;103515;-83
2021/06/22 00:46:07;;;;;;;13.47;9.03;;;;;;;23.75;60.17;99714.56;125669;1095;114372;-84
2021/06/22 00:48:34;;;;;;;11.53;8.70;;;;;;;23.61;60.27;99712.25;125750;1095;103151;-84
2021/06/22 00:51:02;;;;;;;8.10;7.33;;;;;;;23.50;60.86;99705.94;125830;1096;103377;-84
2021/06/22 00:53:29;;;;;;;9.18;7.30;;;;;;;23.39;61.25;99708.77;125632;1096;113270;-85
2021/06/22 00:55:57;;;;;;;9.03;7.67;;;;;;;23.39;61.41;99706.05;125796;1096;103043;-83
2021/06/22 00:58:24;;;;;;;9.27;7.73;;;;;;;23.34;61.18;99709.20;125686;1096;115029;-83
2021/06/22 01:01:06;;;;;;;10.30;8.13;;;;;;;23.30;62.03;99706.89;125382;1096;103181;-83
2021/06/22 01:03:47;;;;;;;10.13;7.95;;;;;;;23.25;61.56;99703.76;125583;1096;114310;-83
2021/06/22 01:06:28;;;;;;;10.30;8.97;;;;;;;23.23;62.19;99700.30;125921;1094;103068;-83
2021/06/22 01:09:09;;;;;;;9.25;8.08;;;;;;;23.23;62.07;99694.88;126006;1096;103067;-83
2021/06/22 01:11:38;;;;;;;14.35;9.13;;;;;;;23.25;62.44;99690.17;125890;1094;115419;-83
2021/06/22 01:14:05;;;;;;;11.77;8.17;;;;;;;23.21;62.34;99687.72;126021;1096;103046;-83
2021/06/22 01:16:32;;;;;;;11.00;9.07;;;;;;;23.13;62.60;99678.53;125953;1093;114076;-83
2021/06/22 01:19:05;;;;;;;10.20;9.15;;;;;;;23.08;63.12;99675.37;126100;1095;103374;-83
2021/06/22 01:21:35;;;;;;;13.77;7.87;;;;;;;23.09;63.04;99680.66;126185;1093;114184;-82
2021/06/22 01:24:07;;;;;;;10.00;8.80;;;;;;;23.07;63.23;99679.08;126060;1092;103035;-83
2021/06/22 01:26:37;;;;;;;9.53;8.53;;;;;;;23.07;62.81;99681.79;126092;1093;102891;-85
2021/06/22 01:29:06;;;;;;;9.90;8.27;;;;;;;22.96;63.25;99680.89;126029;1096;114892;-84
2021/06/22 01:31:35;;;;;;;13.10;8.50;;;;;;;22.89;63.77;99668.88;126071;1095;103058;-84
2021/06/22 01:34:03;;;;;;;11.35;8.43;;;;;;;22.88;64.26;99678.89;126027;1096;115445;-85
2021/06/22 01:36:53;;;;;;;10.50;8.48;;;;;;;22.83;64.19;99677.56;126652;1095;103028;-84
2021/06/22 01:39:22;;;;;;;9.73;8.70;;;;;;;22.81;64.11;99672.27;126022;1096;103080;-83
2021/06/22 01:41:50;;;;;;;11.07;8.73;;;;;;;22.84;64.50;99676.58;125944;1094;116854;-83
2021/06/22 01:44:17;;;;;;;13.70;8.63;;;;;;;22.83;64.13;99678.44;126088;1093;102889;-83
2021/06/22 01:46:45;;;;;;;14.80;8.83;;;;;;;22.82;64.26;99671.28;125921;1096;114307;-84
2021/06/22 01:49:14;;;;;;;10.50;9.40;;;;;;;22.84;63.99;99671.14;126022;1094;102903;-83
2021/06/22 01:51:55;;;;;;;15.90;10.98;;;;;;;22.86;63.74;99671.88;125636;1095;114529;-84
2021/06/22 01:54:22;;;;;;;10.50;9.50;;;;;;;22.91;63.96;99669.58;125751;1096;103230;-83
2021/06/22 01:56:51;;;;;;;10.87;9.03;;;;;;;22.92;64.40;99667.75;125927;1096;103039;-84
2021/06/22 01:59:18;;;;;;;13.93;9.47;;;;;;;22.86;64.06;99670.02;125945;1096;115076;-84
2021/06/22 02:01:46;;;;;;;12.25;9.55;;;;;;;22.84;64.53;99673.86;126098;1094;103004;-83
2021/06/22 02:04:16;;;;;;;12.35;9.48;;;;;;;22.83;64.53;99678.44;125948;1096;115264;-84
2021/06/22 02:06:57;;;;;;;11.60;10.38;;;;;;;22.84;64.20;99674.70;126115;1093;103052;-83
2021/06/22 02:09:24;;;;;;;10.77;8.83;;;;;;;22.81;64.30;99679.58;126054;1096;103154;-84
2021/06/22 02:12:06;;;;;;;10.10;9.03;;;;;;;22.79;64.79;99682.43;125699;1095;114007;-84
2021/06/22 02:14:33;;;;;;;10.13;8.30;;;;;;;22.76;64.74;99676.41;125717;1096;102913;-84
2021/06/22 02:17:00;;;;;;;10.40;8.97;;;;;;;22.74;64.92;99695.55;125725;1095;114141;-82
2021/06/22 02:19:29;;;;;;;12.33;9.40;;;;;;;22.69;65.08;99692.38;125899;1093;101710;-83
2021/06/22 02:21:57;;;;;;;11.40;9.70;;;;;;;22.63;65.68;99693.79;127533;1094;114264;-84
2021/06/22 02:24:24;;;;;;;11.23;9.97;;;;;;;22.56;65.57;99691.75;127621;1095;101019;-83
2021/06/22 02:26:52;;;;;;;15.25;10.50;;;;;;;22.54;65.52;99689.17;125926;1093;103447;-83
2021/06/22 02:29:19;;;;;;;12.90;9.20;;;;;;;22.52;65.68;99691.15;125907;1096;115448;-83
2021/06/22 02:31:47;;;;;;;11.30;9.37;;;;;;;22.53;66.04;99684.73;126050;1093;102909;-82
2021/06/22 02:34:14;;;;;;;13.57;10.90;;;;;;;22.54;65.72;99692.73;125969;1095;115549;-83
2021/06/22 02:36:41;;;;;;;15.25;10.88;;;;;;;22.56;65.56;99697.17;126049;1093;102993;-82
2021/06/22 02:39:09;;;;;;;16.23;10.70;;;;;;;22.56;66.01;99697.17;126100;1096;103116;-83
2021/06/22 02:41:36;;;;;;;14.68;10.50;;;;;;;22.58;66.04;99703.31;125921;1093;115356;-85
2021/06/22 02:44:04;;;;;;;13.38;10.30;;;;;;;22.56;65.91;99710.74;126153;1096;102986;-84
2021/06/22 02:46:31;;;;;;;11.50;10.40;;;;;;;22.57;65.78;99707.89;125974;1093;115192;-84
2021/06/22 02:48:58;;;;;;;12.10;9.13;;;;;;;22.52;65.93;99692.00;126044;1096;103036;-84
2021/06/22 02:51:26;;;;;;;11.13;9.00;;;;;;;22.58;66.00;99706.91;126121;1095;103047;-84
2021/06/22 02:54:07;;;;;;;10.93;9.93;;;;;;;22.62;66.41;99704.76;126053;1093;114934;-84
2021/06/22 02:56:35;;;;;;;12.33;10.33;;;;;;;22.59;65.91;99705.88;126046;1096;103196;-84
2021/06/22 02:59:02;;;;;;;10.95;9.85;;;;;;;22.59;66.54;99708.59;125971;1096;115791;-83
2021/06/22 03:01:41;;;;;;;11.40;9.97;;;;;;;22.56;66.26;99698.02;126042;1096;102975;-84
2021/06/22 03:04:08;;;;;;;10.50;9.05;;;;;;;22.59;66.14;99702.32;125934;1094;115452;-84
2021/06/22 03:06:36;;;;;;;14.75;10.43;;;;;;;22.61;66.23;99705.78;126024;1094;103348;-85
2021/06/22 03:09:04;;;;;;;11.40;9.78;;;;;;;22.62;66.46;99696.61;126231;1096;103095;-83
2021/06/22 03:11:32;;;;;;;10.33;8.90;;;;;;;22.60;66.42;99701.33;126061;1096;114442;-83
2021/06/22 03:14:00;;;;;;;9.75;8.48;;;;;;;22.60;66.74;99699.47;126136;1094;102908;-84
2021/06/22 03:16:27;;;;;;;12.53;9.80;;;;;;;22.62;66.41;99700.20;125954;1095;115898;-84
2021/06/22 03:18:54;;;;;;;23.57;11.30;;;;;;;22.65;66.40;99708.06;126112;1096;103029;-83
2021/06/22 03:21:22;;;;;;;9.23;8.43;;;;;;;22.63;66.57;99706.48;126116;1093;102922;-84
2021/06/22 03:24:04;;;;;;;11.33;9.83;;;;;;;22.62;66.94;99721.04;125906;1092;115179;-84
2021/06/22 03:26:31;;;;;;;12.28;10.98;;;;;;;22.61;66.56;99728.34;126058;1096;102935;-84
2021/06/22 03:28:58;;;;;;;12.13;9.58;;;;;;;22.62;66.78;99712.89;127435;1093;114418;-84
2021/06/22 03:31:40;;;;;;;10.23;9.15;;;;;;;22.66;67.01;99720.66;127334;1096;101957;-84
2021/06/22 03:34:09;;;;;;;20.63;10.33;;;;;;;22.73;67.20;99723.69;125841;1096;115470;-84
2021/06/22 03:36:38;;;;;;;18.65;11.43;;;;;;;22.75;66.66;99726.26;126025;1093;101748;-85
2021/06/22 03:39:08;;;;;;;11.50;10.37;;;;;;;22.79;66.85;99731.30;126037;1093;104532;-85
2021/06/22 03:41:36;;;;;;;15.35;11.25;;;;;;;22.84;66.49;99734.44;125913;1096;115786;-84
2021/06/22 03:44:04;;;;;;;12.40;9.70;;;;;;;22.86;67.29;99726.19;126086;1093;102889;-82
2021/06/22 03:46:32;;;;;;;12.70;9.97;;;;;;;22.88;66.75;99730.48;126004;1095;115842;-84
2021/06/22 03:49:13;;;;;;;14.00;10.08;;;;;;;22.93;66.62;99732.77;127651;1094;101180;-85
2021/06/22 03:51:41;;;;;;;20.75;10.63;;;;;;;22.94;66.63;99730.91;126066;1094;103151;-84
2021/06/22 03:54:22;;;;;;;16.70;11.20;;;;;;;22.92;67.00;99727.48;125914;1094;115520;-83
2021/06/22 03:56:50;;;;;;;17.13;10.93;;;;;;;22.93;66.56;99715.63;125996;1095;102918;-84
2021/06/22 03:59:17;;;;;;;17.00;10.27;;;;;;;22.99;66.50;99715.06;125895;1095;114295;-83
2021/06/22 04:01:59;;;;;;;13.17;10.87;;;;;;;23.05;66.65;99722.67;125686;1096;103340;-84
2021/06/22 04:04:26;;;;;;;19.37;11.20;;;;;;;23.13;66.60;99720.16;125664;1096;114641;-83
2021/06/22 04:06:54;;;;;;;17.53;11.17;;;;;;;23.21;65.94;99720.31;125711;1096;103175;-84
2021/06/22 04:09:35;;;;;;;14.73;10.93;;;;;;;23.30;66.12;99718.63;125732;1096;103064;-84
2021/06/22 04:12:17;;;;;;;14.00;10.57;;;;;;;23.37;66.51;99722.50;125620;1096;114489;-84
2021/06/22 04:14:45;;;;;;;14.18;11.33;;;;;;;23.41;66.14;99722.24;125857;1096;103212;-84
2021/06/22 04:17:12;;;;;;;15.95;11.75;;;;;;;23.41;65.82;99720.38;125752;1095;115416;-84
2021/06/22 04:19:40;;;;;;;17.80;11.70;;;;;;;23.50;65.60;99724.13;125799;1096;102954;-84
2021/06/22 04:22:08;;;;;;;16.00;8.80;;;;;;;23.53;65.84;99719.23;125713;1096;115841;-83
2021/06/22 04:24:36;;;;;;;13.80;11.13;;;;;;;23.52;65.54;99722.95;125752;1098;103015;-85
2021/06/22 04:27:04;;;;;;;21.03;11.58;;;;;;;23.55;65.54;99721.81;125803;1096;102942;-84
2021/06/22 04:29:31;;;;;;;14.10;9.45;;;;;;;23.61;65.62;99723.13;125725;1095;115295;-84
2021/06/22 04:31:59;;;;;;;20.05;10.25;;;;;;;23.64;65.87;99717.40;125742;1096;102935;-85
2021/06/22 04:34:40;;;;;;;14.85;10.53;;;;;;;23.73;65.78;99726.58;125814;1095;114654;-84
2021/06/22 04:37:08;;;;;;;12.23;10.60;;;;;;;23.75;65.27;99730.88;125769;1095;103109;-84
2021/06/22 04:39:49;;;;;;;12.03;9.97;;;;;;;23.81;65.31;99730.28;125679;1096;103162;-84
2021/06/22 04:42:30;;;;;;;17.48;10.80;;;;;;;23.85;65.08;99730.87;125558;1096;114034;-84
2021/06/22 04:44:58;;;;;;;19.78;11.20;;;;;;;23.92;65.08;99732.03;125707;1095;103062;-84
2021/06/22 04:47:26;;;;;;;12.17;10.20;;;;;;;24.03;64.60;99737.34;125674;1096;114315;-84
2021/06/22 04:49:56;;;;;;;18.20;11.60;;;;;;;24.08;64.98;99742.34;125776;1096;102982;-83
2021/06/22 04:52:24;;;;;;;16.60;10.80;;;;;;;24.12;64.91;99745.64;125941;1095;116069;-83
2021/06/22 04:54:52;;;;;;;12.00;9.20;;;;;;;24.17;64.40;99752.36;126100;1096;103392;-87
2021/06/22 04:57:20;;;;;;;17.43;10.73;;;;;;;24.23;64.76;99747.34;126261;1096;102920;-82
2021/06/22 04:59:48;;;;;;;15.80;9.55;;;;;;;24.32;64.92;99743.75;126098;1096;114258;-85
2021/06/22 05:02:20;;;;;;;18.65;10.38;;;;;;;24.38;64.34;99744.03;126033;1095;103039;-84
2021/06/22 05:04:48;;;;;;;15.00;10.68;;;;;;;24.48;63.82;99754.05;125935;1096;116052;-84
2021/06/22 05:07:16;;;;;;;17.50;9.43;;;;;;;24.52;64.46;99755.46;126056;1095;103014;-83
2021/06/22 05:09:58;;;;;;;13.25;8.95;;;;;;;24.56;63.20;99756.04;125642;1096;103086;-84
2021/06/22 05:12:25;;;;;;;13.85;9.78;;;;;;;24.58;63.26;99763.05;125580;1096;115194;-83
2021/06/22 05:14:53;;;;;;;13.27;10.27;;;;;;;24.64;63.86;99761.63;125769;1096;102947;-83
2021/06/22 05:17:20;;;;;;;21.53;14.53;;;;;;;24.73;63.89;99760.75;125580;1096;113456;-83
2021/06/22 05:19:48;;;;;;;12.93;10.23;;;;;;;24.77;63.50;99764.05;125797;1096;103076;-83
2021/06/22 05:22:29;;;;;;;15.48;10.93;;;;;;;24.80;62.62;99759.14;125600;1095;115569;-85
2021/06/22 05:25:11;;;;;;;19.65;11.03;;;;;;;24.84;62.27;99749.66;125360;1096;103470;-84
2021/06/22 05:27:39;;;;;;;17.65;11.20;;;;;;;24.87;62.49;99748.51;125757;1094;103068;-83
2021/06/22 05:30:07;;;;;;;16.07;11.53;;;;;;;24.90;62.18;99752.80;125738;1095;114671;-86
2021/06/22 05:32:48;;;;;;;20.88;10.53;;;;;;;24.88;62.31;99750.23;125678;1096;103652;-83
2021/06/22 05:35:30;;;;;;;20.45;11.40;;;;;;;24.97;62.37;99746.61;125525;1095;114573;-82
2021/06/22 05:37:58;;;;;;;19.58;11.03;;;;;;;25.07;62.08;99749.31;125864;1097;103020;-84
2021/06/22 05:40:40;;;;;;;25.93;11.68;;;;;;;25.15;62.13;99748.53;125659;1096;114706;-84
2021/06/22 05:43:07;;;;;;;13.90;11.03;;;;;;;25.19;62.10;99748.09;125721;1094;103402;-85
2021/06/22 05:45:35;;;;;;;17.07;11.20;;;;;;;25.25;62.43;99751.23;125663;1095;103052;-84
2021/06/22 05:48:03;;;;;;;19.63;9.77;;;;;;;25.36;62.61;99754.66;125828;1095;114495;-85
2021/06/22 05:50:45;;;;;;;20.90;10.50;;;;;;;25.49;62.43;99751.54;125928;1095;102900;-83
2021/06/22 05:53:12;;;;;;;21.33;9.77;;;;;;;25.55;61.70;99752.79;125851;1095;114391;-84
2021/06/22 05:55:40;;;;;;;20.20;11.10;;;;;;;25.62;61.19;99753.03;126117;1095;102900;-83
2021/06/22 05:58:08;;;;;;;19.43;11.35;;;;;;;25.61;61.32;99746.73;125994;1096;114576;-84
2021/06/22 06:00:35;;;;;;;12.93;10.10;;;;;;;25.63;61.38;99739.27;126081;1096;103167;-83
2021/06/22 06:03:04;;;;;;;12.68;10.55;;;;;;;25.74;61.57;99740.03;126052;1095;103032;-84
2021/06/22 06:05:31;;;;;;;13.05;9.90;;;;;;;25.84;61.05;99743.55;125960;1095;114487;-84
2021/06/22 06:07:58;;;;;;;21.55;10.88;;;;;;;25.91;61.38;99746.52;126120;1095;103045;-83
2021/06/22 06:10:32;;;;;;;17.27;10.10;;;;;;;25.96;60.85;99749.64;126001;1096;115573;-86
2021/06/22 06:13:13;;;;;;;13.53;8.88;;;;;;;25.96;59.97;99755.09;125753;1096;103060;-86
2021/06/22 06:16:01;;;;;;;18.83;10.63;;;;;;;25.95;60.00;99740.61;125752;1095;102982;-84
2021/06/22 06:18:43;;;;;;;15.83;9.33;;;;;;;25.99;59.23;99744.73;125563;1096;114084;-84
2021/06/22 06:21:31;;;;;;;18.15;10.35;;;;;;;26.03;59.87;99740.70;125931;1098;102869;-84
2021/06/22 06:24:07;;;;;;;18.60;9.50;;;;;;;26.13;60.81;99742.49;125609;1099;114679;-83
2021/06/22 06:26:56;;;;;;;12.83;8.90;;;;;;;26.23;60.07;99731.47;125754;1099;103079;-85
2021/06/22 06:29:38;;;;;;;14.58;10.80;;;;;;;26.30;59.62;99727.11;125654;1100;115221;-83
2021/06/22 06:32:09;;;;;;;16.93;8.87;;;;;;;26.36;59.34;99730.06;125551;1100;103061;-86
2021/06/22 06:35:00;;;;;;;19.13;9.73;;;;;;;26.43;59.56;99735.74;125073;1100;114379;-82
2021/06/22 06:37:41;;;;;;;15.70;9.80;;;;;;;26.57;60.24;99733.44;125619;1100;103211;-86
2021/06/22 06:40:30;;;;;;;16.30;9.87;;;;;;;26.63;58.36;99724.58;124972;1100;115568;-83
2021/06/22 06:42:57;;;;;;;11.63;8.63;;;;;;;26.72;59.20;99726.38;125027;1101;102981;-84
2021/06/22 06:45:25;;;;;;;17.47;8.73;;;;;;;26.78;58.48;99723.02;125078;1100;103041;-83
2021/06/22 06:48:07;;;;;;;13.93;8.53;;;;;;;26.79;59.20;99727.47;124973;1100;115086;-83
2021/06/22 06:50:35;;;;;;;20.63;8.27;;;;;;;26.88;58.70;99730.23;125113;1100;103109;-82
2021/06/22 06:53:16;;;;;;;19.37;7.67;;;;;;;26.99;58.22;99728.08;124988;1102;114273;-86
2021/06/22 06:55:46;;;;;;;18.85;8.43;;;;;;;27.07;58.62;99734.59;124965;1101;103074;-83
2021/06/22 06:58:27;;;;;;;16.45;8.10;;;;;;;27.17;57.67;99730.70;124855;1100;116021;-82
2021/06/22 07:00:55;;;;;;;15.78;7.88;;;;;;;27.24;58.02;99728.16;125087;1099;102911;-82
2021/06/22 07:03:37;;;;;;;23.73;8.58;;;;;;;27.32;57.69;99722.72;125237;1099;103110;-84
2021/06/22 07:06:05;;;;;;;13.67;6.97;;;;;;;27.39;56.33;99724.83;124967;1098;114147;-84
2021/06/22 07:08:46;;;;;;;12.65;7.80;;;;;;;27.40;57.12;99730.13;125185;1099;103045;-82
2021/06/22 07:11:27;;;;;;;21.53;7.63;;;;;;;27.46;57.99;99728.63;125223;1099;114815;-83
2021/06/22 07:13:56;;;;;;;12.93;7.60;;;;;;;27.46;56.59;99734.95;125230;1100;103061;-82
2021/06/22 07:16:23;;;;;;;16.53;7.90;;;;;;;27.52;57.02;99734.29;125188;1100;116288;-83
2021/06/22 07:18:51;;;;;;;17.97;7.63;;;;;;;27.53;55.91;99729.66;125493;1096;103171;-83
2021/06/22 07:21:19;;;;;;;15.25;8.35;;;;;;;27.57;57.40;99735.66;125773;1095;103050;-81
2021/06/22 07:23:47;;;;;;;16.78;8.13;;;;;;;27.65;57.02;99733.78;125620;1096;114642;-81
2021/06/22 07:26:33;;;;;;;17.43;8.90;;;;;;;27.75;55.95;99740.98;125733;1096;103003;-82
2021/06/22 07:29:01;;;;;;;19.40;9.00;;;;;;;27.80;56.01;99738.60;125533;1096;113734;-84
2021/06/22 07:31:43;;;;;;;16.03;8.05;;;;;;;27.89;55.90;99739.48;125828;1095;104880;-82
2021/06/22 07:34:11;;;;;;;12.03;7.53;;;;;;;28.00;56.79;99741.88;126039;1095;101608;-85
2021/06/22 07:36:39;;;;;;;13.37;8.27;;;;;;;28.10;56.14;99744.50;125885;1095;115176;-83
2021/06/22 07:39:07;;;;;;;17.73;8.05;;;;;;;28.09;54.43;99746.36;125948;1095;102932;-82
2021/06/22 07:41:35;;;;;;;13.10;7.83;;;;;;;28.13;56.12;99749.63;125895;1096;115262;-84
2021/06/22 07:44:12;;;;;;;13.08;8.38;;;;;;;28.22;56.36;99754.08;127628;1096;100941;-84
2021/06/22 07:46:40;;;;;;;14.63;8.93;;;;;;;28.38;55.44;99753.22;127203;1096;115171;-84
2021/06/22 07:49:08;;;;;;;15.20;8.80;;;;;;;28.47;54.36;99756.78;127121;1093;102895;-83
2021/06/22 07:51:36;;;;;;;17.58;9.55;;;;;;;28.58;55.34;99747.34;126101;1093;102863;-82
2021/06/22 07:54:04;;;;;;;15.50;8.93;;;;;;;28.69;55.16;99744.30;125932;1095;115195;-82
2021/06/22 07:56:32;;;;;;;13.33;8.73;;;;;;;28.80;54.19;99749.39;126065;1095;103225;-83
2021/06/22 07:58:59;;;;;;;13.45;8.53;;;;;;;28.92;55.11;99749.03;125965;1096;115139;-84
2021/06/22 08:01:27;;;;;;;13.73;8.37;;;;;;;28.97;52.15;99749.36;126028;1093;102822;-81
2021/06/22 08:03:55;;;;;;;17.17;8.50;;;;;;;29.03;53.58;99751.41;126011;1094;102913;-82
2021/06/22 08:06:24;;;;;;;10.78;7.35;;;;;;;29.12;53.73;99752.22;125930;1095;115447;-84
2021/06/22 08:08:52;;;;;;;12.98;6.65;;;;;;;29.21;50.95;99750.31;126069;1093;103007;-83
2021/06/22 08:11:20;;;;;;;14.93;7.63;;;;;;;29.23;51.21;99753.72;125910;1096;114516;-84
2021/06/22 08:14:01;;;;;;;10.75;6.88;;;;;;;29.29;51.66;99744.81;125582;1096;102913;-83
2021/06/22 08:16:29;;;;;;;12.95;7.30;;;;;;;29.35;52.07;99739.47;125619;1096;114352;-84
2021/06/22 08:19:00;;;;;;;13.57;7.73;;;;;;;29.42;50.98;99734.13;125927;1095;103244;-83
2021/06/22 08:21:28;;;;;;;9.37;6.37;;;;;;;29.52;49.50;99747.60;126035;1094;103777;-82
2021/06/22 08:23:56;;;;;;;16.37;6.90;;;;;;;29.52;50.18;99748.48;125904;1096;114320;-82
2021/06/22 08:26:24;;;;;;;12.97;6.43;;;;;;;29.63;49.20;99751.83;126004;1093;102990;-83
2021/06/22 08:28:51;;;;;;;6.40;5.00;;;;;;;29.72;47.75;99764.47;125916;1096;115672;-84
2021/06/22 08:31:34;;;;;;;8.15;4.88;;;;;;;29.76;47.33;99753.98;125772;1096;103290;-84
2021/06/22 08:34:03;;;;;;;11.95;5.70;;;;;;;29.87;47.56;99748.13;125797;1096;103112;-82
2021/06/22 08:36:31;;;;;;;12.20;5.20;;;;;;;30.01;47.91;99755.55;125708;1099;114096;-84
2021/06/22 08:39:08;;;;;;;5.03;4.53;;;;;;;30.15;45.38;99770.39;125758;1095;103082;-87
2021/06/22 08:41:36;;;;;;;8.43;5.05;;;;;;;30.17;46.06;99772.95;125581;1100;114145;-81
2021/06/22 08:44:04;;;;;;;8.30;5.40;;;;;;;30.25;46.26;99772.88;125612;1097;103384;-83
2021/06/22 08:46:32;;;;;;;9.13;5.07;;;;;;;30.31;45.72;99766.66;125564;1100;115260;-82
2021/06/22 08:49:00;;;;;;;8.73;5.83;;;;;;;30.39;46.68;99765.73;125674;1096;102857;-80
2021/06/22 08:51:37;;;;;;;9.63;6.10;;;;;;;30.50;46.62;99770.80;125664;1098;102935;-81
2021/06/22 08:54:18;;;;;;;10.98;5.60;;;;;;;30.73;45.84;99774.55;124846;1098;114058;-81
2021/06/22 08:56:45;;;;;;;9.65;5.33;;;;;;;30.96;46.29;99775.34;125037;1100;103279;-81
2021/06/22 08:59:13;;;;;;;8.00;5.30;;;;;;;31.18;44.52;99769.95;125003;1100;114796;-81
2021/06/22 09:01:54;;;;;;;10.78;6.45;;;;;;;31.34;44.50;99777.99;125389;1100;103186;-81
2021/06/22 09:04:22;;;;;;;7.30;5.67;;;;;;;31.38;42.83;99777.60;125931;1098;114482;-82
2021/06/22 09:06:50;;;;;;;11.37;5.90;;;;;;;31.34;43.67;99777.16;125973;1097;102923;-84
2021/06/22 09:09:17;;;;;;;10.93;5.88;;;;;;;31.47;43.61;99774.57;126017;1096;103211;-82
2021/06/22 09:12:04;;;;;;;6.40;4.80;;;;;;;31.68;44.79;99776.55;126004;1096;115178;-82
2021/06/22 09:14:40;;;;;;;9.17;5.70;;;;;;;31.96;44.00;99777.69;126011;1096;103101;-83
2021/06/22 09:17:08;;;;;;;10.60;5.90;;;;;;;32.07;43.47;99784.58;125886;1096;114242;-83
2021/06/22 09:19:37;;;;;;;6.20;5.30;;;;;;;32.14;43.32;99775.34;126004;1097;103038;-85
2021/06/22 09:22:18;;;;;;;6.50;4.78;;;;;;;32.18;41.91;99792.37;125975;1096;102983;-83
2021/06/22 09:25:09;;;;;;;12.17;6.47;;;;;;;32.21;41.89;99788.37;125852;1095;114291;-84
2021/06/22 09:27:47;;;;;;;12.30;6.03;;;;;;;32.34;41.13;99791.25;125925;1096;103368;-82
2021/06/22 09:31:10;;;;;;;5.73;5.10;;;;;;;32.45;40.27;99789.86;125736;1097;115174;-82
2021/06/22 09:33:41;;;;;;;6.35;4.95;;;;;;;33.40;40.16;99784.80;126169;1093;103890;-84
2021/06/22 09:36:16;;;;;;;10.88;5.78;;;;;;;33.85;38.68;99778.01;126179;1095;113999;-82
2021/06/22 09:38:52;;;;;;;5.53;4.70;;;;;;;34.71;35.20;99779.16;126232;1096;102920;-82
2021/06/22 09:41:34;;;;;;;11.40;5.20;;;;;;;35.54;35.48;99769.44;126181;1095;114071;-83
2021/06/22 09:44:09;;;;;;;10.38;4.28;;;;;;;36.43;31.88;99775.08;126274;1093;102931;-82
2021/06/22 09:46:58;;;;;;;5.68;4.38;;;;;;;37.04;30.84;99767.91;126129;1096;116117;-86
2021/06/22 09:49:31;;;;;;;6.38;3.10;;;;;;;37.51;29.38;99772.96;126214;1095;103138;-84
2021/06/22 09:52:15;;;;;;;8.10;4.30;;;;;;;37.72;29.86;99774.39;126325;1093;102898;-85
2021/06/22 09:54:42;;;;;;;9.33;5.13;;;;;;;38.07;29.92;99770.91;126177;1096;113781;-82
2021/06/22 09:57:13;;;;;;;4.18;3.13;;;;;;;38.45;28.33;99772.45;126337;1092;102890;-81
2021/06/22 10:00:07;;;;;;;7.87;4.60;;;;;;;39.07;29.39;99767.52;126186;1093;115134;-82
2021/06/22 10:02:53;;;;;;;6.67;3.77;;;;;;;39.52;27.63;99766.83;126208;1096;103178;-81
2021/06/22 10:05:21;;;;;;;5.88;3.68;;;;;;;39.93;27.29;99756.50;126188;1096;114939;-82
2021/06/22 10:08:03;;;;;;;9.33;4.43;;;;;;;40.77;27.50;99763.25;126299;1094;102991;-82
2021/06/22 10:10:44;;;;;;;7.57;3.43;;;;;;;41.39;25.47;99764.17;126135;1093;114164;-83
2021/06/22 10:13:43;;;;;;;5.27;3.07;;;;;;;41.43;26.15;99768.13;126306;1096;102975;-80
2021/06/22 10:16:25;;;;;;;8.28;3.93;;;;;;;41.14;24.65;99766.62;126283;1096;102986;-81
2021/06/22 10:18:53;;;;;;;7.87;3.50;;;;;;;41.30;25.01;99768.50;126153;1093;113812;-82
2021/06/22 10:21:21;;;;;;;5.53;3.23;;;;;;;41.28;24.24;99768.77;126328;1094;102999;-80
2021/06/22 10:23:50;;;;;;;5.03;2.90;;;;;;;41.51;24.96;99761.24;126154;1094;114069;-82
2021/06/22 10:26:31;;;;;;;6.30;3.20;;;;;;;41.83;23.21;99762.44;126189;1095;101904;-82
2021/06/22 10:29:00;;;;;;;7.17;3.60;;;;;;;41.68;23.59;99772.34;125943;1096;114368;-83
2021/06/22 10:31:42;;;;;;;5.87;3.73;;;;;;;41.76;23.89;99762.62;126065;1096;103058;-82
2021/06/22 10:34:24;;;;;;;6.10;3.10;;;;;;;42.09;23.64;99760.75;126096;1095;103179;-84
2021/06/22 10:37:15;;;;;;;5.95;3.45;;;;;;;41.83;23.53;99756.84;125972;1095;113942;-83
2021/06/22 10:40:06;;;;;;;5.93;3.20;;;;;;;40.63;25.11;99750.78;126044;1096;103077;-82
2021/06/22 10:42:47;;;;;;;6.90;3.05;;;;;;;40.24;25.37;99745.08;125907;1096;115229;-82
2021/06/22 10:45:20;;;;;;;9.90;3.30;;;;;;;40.50;25.32;99756.69;125992;1096;103035;-82
2021/06/22 10:47:49;;;;;;;6.00;3.00;;;;;;;40.78;24.91;99739.83;125940;1096;114047;-83
2021/06/22 10:50:23;;;;;;;5.93;2.97;;;;;;;41.05;24.43;99730.72;126011;1095;103001;-82
2021/06/22 10:53:12;;;;;;;7.87;3.07;;;;;;;41.27;23.45;99732.70;125968;1095;114173;-84
2021/06/22 10:55:49;;;;;;;5.57;3.17;;;;;;;41.30;23.74;99734.96;125945;1096;103025;-82
2021/06/22 10:58:20;;;;;;;4.60;2.60;;;;;;;41.38;23.26;99740.12;125987;1095;101742;-81
2021/06/22 11:01:12;;;;;;;5.78;3.00;;;;;;;41.46;24.31;99736.02;125894;1096;113968;-83
2021/06/22 11:03:40;;;;;;;6.48;3.78;;;;;;;41.13;22.51;99726.64;125994;1095;102970;-84
2021/06/22 11:06:25;;;;;;;4.93;3.45;;;;;;;40.32;24.24;99719.54;126151;1094;115626;-83
2021/06/22 11:09:30;;;;;;;4.87;3.10;;;;;;;39.70;25.41;99707.30;126320;1093;103064;-82
2021/06/22 11:12:24;;;;;;;6.53;3.93;;;;;;;38.85;27.29;99722.77;126177;1095;115114;-82
2021/06/22 11:15:07;;;;;;;5.93;3.70;;;;;;;38.16;27.44;99714.95;126194;1093;103016;-83
2021/06/22 11:17:41;;;;;;;11.80;4.07;;;;;;;37.71;26.69;99722.67;126078;1096;113919;-83
2021/06/22 11:20:17;;;;;;;8.00;4.05;;;;;;;37.15;28.00;99719.95;126065;1093;103623;-83
2021/06/22 11:23:06;;;;;;;6.03;3.80;;;;;;;36.75;29.30;99723.16;125980;1094;113739;-82
2021/06/22 11:26:03;;;;;;;20.85;5.00;;;;;;;36.57;30.18;99720.36;125986;1096;103562;-84
2021/06/22 11:29:00;;;;;;;5.30;3.25;;;;;;;36.26;29.36;99716.55;126172;1094;102958;-83
2021/06/22 11:31:41;;;;;;;5.47;3.80;;;;;;;35.93;30.10;99718.49;126272;1096;102905;-83
2021/06/22 11:34:22;;;;;;;8.00;4.10;;;;;;;35.58;29.79;99707.83;126195;1095;103057;-84
2021/06/22 11:36:50;;;;;;;4.30;3.90;;;;;;;35.33;30.73;99707.73;126142;1096;113973;-81